Aérodrome :
LOGIN :

S'inscrire | Disclaimer

   EN    FR    IT 

 










Légende :    VFR   VFR Marginal   IFR   IFR Intensif   IFR Très Intensif
Visi : 
Plafond : 
>= 8 km
>= 3000ft
5 à 8 km
1000 à 3000 ft
1500m à 5 km
500 à 1000 ft
800 à 1500m
200 à 500 ft
< 800m
< 200 ft
Symboles :   Orages  Brouillard  Fortes neiges  Fortes précipitations  Vent > 20 kt
SIGMETs :   Divers  Orages  Givrage  Turbulence  Onde Orograph.  Cendres Volcan.







- Altitude de l'aérodrome : 614 ft
- Code IATA : CRL


EBCI - Charleroi

DERNIER METAR :
  • 101950Z 28004KT 240V320 9999 -SHRA SCT020 BKN033 04/03 Q1026 NOSIG

METARs EXPIRÉS :
  • 101920Z 30003KT 250V360 9999 SCT027 BKN040 04/02 Q1026 NOSIG
  • 101850Z VRB02KT 9999 -SHRA FEW015 BKN040 04/02 Q1026 NOSIG
  • 101820Z 28005KT 9999 FEW015 BKN040 04/02 Q1025 NOSIG
  • 101750Z 28005KT 250V320 9999 FEW015 BKN040 04/02 Q1025 NOSIG
  • 101720Z 30004KT 260V340 9999 FEW015 BKN028 05/02 Q1025 NOSIG

TAF TAF EBCI
Valide du 10 à 18h jusqu'au 12 à 00h UTC


101710Z 1018/1124 28006KT 9999 SCT020
BECMG 1118/1120 3000 BR
Pas de NOTAMs connus pour ce terrain.



MET'MAP, la Météo Aéronautique d'un coup d'oeil ! - Copyright ORBIFLY Décembre 2007 - Disclaimer

ORBIFLY MET'MAP TEAM :

Programmation & Développement : Alexandra Zaïnal
Conception & Développement : Baudouin d'Aumeries
Co-Programmation & Développement : Marc-Olivier Méhu
Soutien technique & logistique : Manuel Goepfert

Contact : metmap@orbifly.com




SOURCES & CREDITS :

   NOAA